Time;durP1;ratioP1;P1;durP2;ratioP2;P2;SDS_P1;SDS_P2;PMS_P1;PMS_P2;Temp;Humidity;BMP_temperature;BMP_pressure;BME280_temperature;BME280_humidity;BME280_pressure;Samples;Min_cycle;Max_cycle;Signal;HPM_P1;HPM_P2
2022/01/23 00:00:57;;;;;;;1.63;0.90;;;;;;;8.80;100.00;101816.00;4996801;28;20049;-51
2022/01/23 00:04:01;;;;;;;3.08;0.82;;;;;;;8.81;100.00;101806.47;4996832;28;20057;-52
2022/01/23 00:07:06;;;;;;;1.65;0.68;;;;;;;8.75;100.00;101808.09;5014525;28;20056;-52
2022/01/23 00:10:11;;;;;;;2.58;0.90;;;;;;;8.74;100.00;101816.88;5016168;28;20064;-52
2022/01/23 00:13:27;;;;;;;2.15;0.88;;;;;;;8.85;100.00;101804.44;5016306;28;20041;-51
2022/01/23 00:19:56;;;;;;;0.98;0.47;;;;;;;8.81;100.00;101800.91;5015846;28;20053;-51
2022/01/23 00:23:11;;;;;;;1.85;1.48;;;;;;;8.79;100.00;101805.31;5016295;28;20068;-51
2022/01/23 00:33:02;;;;;;;0.90;0.75;;;;;;;8.79;100.00;101796.97;5035244;28;20045;-51
2022/01/23 00:36:05;;;;;;;2.15;0.68;;;;;;;8.76;100.00;101786.69;5014041;28;20053;-51
2022/01/23 00:39:09;;;;;;;2.08;0.52;;;;;;;8.72;100.00;101786.75;4995921;28;20053;-52
2022/01/23 00:42:12;;;;;;;6.03;2.22;;;;;;;8.72;100.00;101797.84;4996067;28;20045;-51
2022/01/23 00:45:29;;;;;;;4.18;1.65;;;;;;;8.64;100.00;101784.47;4996032;28;20488;-52
2022/01/23 00:48:36;;;;;;;5.60;1.13;;;;;;;8.49;100.00;101789.38;4995956;28;20502;-51
2022/01/23 00:51:40;;;;;;;5.82;2.22;;;;;;;8.50;100.00;101790.97;4995949;28;20053;-51
2022/01/23 00:54:43;;;;;;;5.88;1.48;;;;;;;8.51;100.00;101789.75;4995760;28;20097;-51
2022/01/23 00:57:46;;;;;;;3.50;0.95;;;;;;;8.50;100.00;101792.94;4995228;28;20057;-51
2022/01/23 01:00:50;;;;;;;7.32;2.60;;;;;;;8.52;100.00;101791.34;4995551;28;20057;-51
2022/01/23 01:03:53;;;;;;;0.55;0.52;;;;;;;8.53;100.00;101792.94;4994833;28;20057;-51
2022/01/23 01:06:56;;;;;;;6.35;1.05;;;;;;;8.51;100.00;101781.41;5012814;28;20057;-51
2022/01/23 01:10:07;;;;;;;2.38;1.23;;;;;;;8.49;100.00;101785.84;5015140;28;20049;-51
2022/01/23 01:13:12;;;;;;;8.13;1.92;;;;;;;8.50;100.00;101790.97;5014209;28;20045;-51
2022/01/23 01:16:35;;;;;;;2.47;1.25;;;;;;;8.73;100.00;101793.06;5014874;28;20060;-51
2022/01/23 01:36:33;;;;;;;3.75;1.15;;;;;;;8.78;100.00;101771.19;5005922;28;20045;-53
2022/01/23 01:39:37;;;;;;;2.58;0.80;;;;;;;8.84;100.00;101771.50;5003154;28;20041;-53
2022/01/23 01:42:41;;;;;;;3.05;1.33;;;;;;;8.87;100.00;101777.00;5004030;28;20057;-54
2022/01/23 01:45:44;;;;;;;5.20;1.92;;;;;;;8.89;100.00;101773.81;5004154;28;20065;-53
2022/01/23 01:48:48;;;;;;;5.40;0.80;;;;;;;8.94;100.00;101763.00;5004608;28;20045;-52
2022/01/23 01:51:53;;;;;;;4.32;1.92;;;;;;;8.93;100.00;101758.66;4995009;28;20479;-52
2022/01/23 01:55:03;;;;;;;8.73;1.45;;;;;;;8.90;100.00;101759.50;4995728;28;20049;-52
2022/01/23 01:58:21;;;;;;;3.35;1.20;;;;;;;8.89;100.00;101757.94;5014355;28;20489;-52
2022/01/23 02:11:25;;;;;;;;;;;;;;;8.82;100.00;101758.03;4999827;28;20053;-52
2022/01/23 02:24:33;;;;;;;;;;;;;;;8.79;100.00;101766.41;5014042;28;19917;-52
2022/01/23 02:51:26;;;;;;;3.22;1.20;;;;;;;8.85;100.00;101739.75;4993361;28;20057;-52
2022/01/23 02:57:56;;;;;;;3.85;1.75;;;;;;;8.80;100.00;101729.88;4993731;28;20061;-52
2022/01/23 03:01:10;;;;;;;2.05;1.00;;;;;;;8.89;100.00;101719.03;4993408;28;20053;-52
2022/01/23 03:04:13;;;;;;;1.27;0.95;;;;;;;8.77;100.00;101716.81;4993751;28;20122;-52
2022/01/23 03:10:24;;;;;;;5.50;1.42;;;;;;;8.94;100.00;101713.00;4993553;28;20053;-52
2022/01/23 03:13:52;;;;;;;5.80;0.95;;;;;;;8.93;100.00;101705.88;4993056;28;20491;-52
2022/01/23 03:30:25;;;;;;;4.32;1.17;;;;;;;8.84;100.00;101710.38;5013261;28;19913;-52
2022/01/23 03:33:28;;;;;;;3.63;1.10;;;;;;;8.79;100.00;101697.72;5012856;28;20088;-53
2022/01/23 03:36:32;;;;;;;4.00;1.63;;;;;;;8.92;100.00;101695.19;5012167;28;20049;-52
2022/01/23 03:39:35;;;;;;;2.47;1.33;;;;;;;8.84;100.00;101697.28;5012467;28;20117;-52
2022/01/23 03:42:41;;;;;;;4.22;1.02;;;;;;;8.80;100.00;101699.31;5012815;28;20049;-52
2022/01/23 03:52:26;;;;;;;4.15;1.95;;;;;;;8.68;100.00;101685.22;5012827;28;20053;-52
2022/01/23 03:55:30;;;;;;;6.47;1.10;;;;;;;8.62;100.00;101684.88;5011716;28;20049;-52
2022/01/23 03:58:34;;;;;;;6.80;0.82;;;;;;;8.57;100.00;101698.47;5012097;28;20045;-52
2022/01/23 04:01:37;;;;;;;4.20;0.70;;;;;;;8.55;100.00;101693.31;5011724;28;20419;-52
2022/01/23 04:04:42;;;;;;;2.55;0.80;;;;;;;8.59;100.00;101688.50;5012529;28;20064;-52
2022/01/23 04:07:46;;;;;;;8.95;1.17;;;;;;;8.58;100.00;101681.38;5012252;28;20068;-52
2022/01/23 04:10:50;;;;;;;3.55;1.25;;;;;;;8.39;100.00;101679.25;5012543;28;20053;-52
2022/01/23 04:14:02;;;;;;;1.73;0.88;;;;;;;8.37;100.00;101685.22;5012343;28;20057;-52
2022/01/23 05:00:34;;;;;;;8.93;0.98;;;;;;;8.54;100.00;101680.63;4995947;28;20049;-52
2022/01/23 05:06:47;;;;;;;2.47;0.70;;;;;;;8.62;100.00;101682.09;4995485;28;20049;-52
2022/01/23 05:09:50;;;;;;;5.57;0.63;;;;;;;8.66;100.00;101677.31;4995297;28;20053;-52
2022/01/23 05:12:53;;;;;;;4.72;1.63;;;;;;;8.64;100.00;101682.47;4995427;28;20396;-52
2022/01/23 05:15:57;;;;;;;0.32;0.28;;;;;;;8.55;100.00;101681.44;4995037;28;20506;-52
2022/01/23 05:19:02;;;;;;;3.03;0.82;;;;;;;8.50;100.00;101668.78;4995320;28;20058;-52
2022/01/23 05:25:18;;;;;;;4.75;0.70;;;;;;;8.55;100.00;101671.13;4995165;28;20510;-52
2022/01/23 05:28:21;;;;;;;1.73;0.85;;;;;;;8.55;100.00;101665.56;4995447;28;20053;-52
2022/01/23 05:31:25;;;;;;;2.15;1.35;;;;;;;8.53;100.00;101667.19;4995108;28;20069;-52
2022/01/23 05:34:28;;;;;;;0.70;0.52;;;;;;;8.54;100.00;101669.53;4995344;28;20049;-52
2022/01/23 05:37:33;;;;;;;2.75;0.85;;;;;;;8.51;100.00;101669.59;4994943;28;20050;-51
2022/01/23 05:40:38;;;;;;;3.40;1.38;;;;;;;8.48;100.00;101671.19;4995327;28;20045;-52
2022/01/23 05:43:41;;;;;;;2.20;0.57;;;;;;;8.46;100.00;101673.63;4994742;28;20057;-52
2022/01/23 05:46:45;;;;;;;3.00;0.57;;;;;;;8.37;100.00;101673.31;5010656;28;20057;-52
2022/01/23 05:49:48;;;;;;;1.00;0.70;;;;;;;8.39;100.00;101674.50;5014435;28;20053;-52
2022/01/23 05:52:51;;;;;;;1.33;0.50;;;;;;;8.35;100.00;101686.84;5013471;28;20574;-52
2022/01/23 05:55:55;;;;;;;1.48;0.65;;;;;;;8.35;100.00;101681.28;5014039;28;20053;-52
2022/01/23 05:58:59;;;;;;;1.27;0.75;;;;;;;8.35;100.00;101684.06;5014396;28;20048;-52
2022/01/23 06:02:02;;;;;;;5.28;0.68;;;;;;;8.37;100.00;101687.22;5013928;28;20423;-52
2022/01/23 06:05:06;;;;;;;3.85;1.40;;;;;;;8.40;100.00;101680.84;5014071;28;20061;-52
2022/01/23 06:08:09;;;;;;;2.83;0.95;;;;;;;8.41;100.00;101687.94;5014139;28;20056;-52
2022/01/23 06:11:13;;;;;;;2.90;1.15;;;;;;;8.39;100.00;101679.25;5013340;28;20053;-52
2022/01/23 06:14:17;;;;;;;2.50;1.48;;;;;;;8.34;100.00;101685.25;5014208;28;20049;-52
2022/01/23 06:17:20;;;;;;;2.83;1.50;;;;;;;8.31;100.00;101686.09;5014278;28;20060;-52
2022/01/23 06:20:24;;;;;;;2.85;1.52;;;;;;;8.28;100.00;101684.16;5013622;28;20069;-52
2022/01/23 06:23:30;;;;;;;3.90;1.27;;;;;;;8.24;100.00;101680.59;5013866;28;20049;-52
2022/01/23 06:26:45;;;;;;;2.10;1.23;;;;;;;8.26;100.00;101681.00;5020591;28;20056;-52
2022/01/23 06:29:49;;;;;;;2.88;0.82;;;;;;;8.22;100.00;101680.22;5033610;28;20064;-52
2022/01/23 06:32:52;;;;;;;3.13;0.80;;;;;;;8.24;100.00;101683.38;5033388;28;20064;-52
2022/01/23 06:35:56;;;;;;;2.97;0.95;;;;;;;8.23;100.00;101688.13;5014970;28;20497;-52
2022/01/23 06:38:59;;;;;;;1.33;0.20;;;;;;;8.22;100.00;101691.34;4993846;28;20057;-52
2022/01/23 06:42:03;;;;;;;2.75;1.02;;;;;;;8.22;100.00;101691.34;4993950;28;20053;-52
2022/01/23 06:45:07;;;;;;;1.27;0.80;;;;;;;8.26;100.00;101687.34;4993808;28;20470;-52
2022/01/23 06:48:11;;;;;;;2.22;1.10;;;;;;;8.23;100.00;101692.88;4994098;28;20057;-52
2022/01/23 06:51:14;;;;;;;2.83;1.17;;;;;;;8.26;100.00;101687.34;4993694;28;20057;-52
2022/01/23 06:54:18;;;;;;;2.40;0.98;;;;;;;8.28;100.00;101689.69;4993635;28;20061;-52
2022/01/23 06:57:22;;;;;;;4.22;0.85;;;;;;;8.27;100.00;101700.00;4993111;28;20058;-52
2022/01/23 07:00:25;;;;;;;3.80;0.98;;;;;;;8.17;100.00;101689.78;4993608;28;20065;-52
2022/01/23 07:03:28;;;;;;;3.00;0.98;;;;;;;8.15;100.00;101688.63;4993755;28;20371;-52
2022/01/23 07:06:32;;;;;;;3.85;1.05;;;;;;;8.20;100.00;101693.72;5007514;28;20057;-52
2022/01/23 07:09:35;;;;;;;3.20;0.90;;;;;;;8.20;100.00;101699.28;5013227;28;20053;-52
2022/01/23 07:12:38;;;;;;;2.53;1.05;;;;;;;8.17;100.00;101703.69;5012944;28;20049;-52
2022/01/23 07:15:42;;;;;;;2.75;1.08;;;;;;;8.18;100.00;101702.47;5012958;28;20045;-52
2022/01/23 07:18:45;;;;;;;2.03;0.95;;;;;;;8.12;100.00;101711.69;5013058;28;20057;-52
2022/01/23 07:21:48;;;;;;;4.68;0.90;;;;;;;8.07;100.00;101699.03;5012690;28;20057;-52
2022/01/23 07:24:53;;;;;;;1.83;0.98;;;;;;;8.07;100.00;101706.56;5012668;28;20060;-52
2022/01/23 07:27:59;;;;;;;0.95;0.95;;;;;;;8.01;100.00;101713.78;5031437;28;20060;-52
2022/01/23 07:31:05;;;;;;;2.63;0.50;;;;;;;8.01;100.00;101709.00;5032478;28;20064;-52
2022/01/23 07:34:10;;;;;;;1.75;1.02;;;;;;;8.00;100.00;101706.63;5032691;28;20056;-52
2022/01/23 07:37:15;;;;;;;5.78;1.33;;;;;;;8.00;100.00;101714.97;5032823;28;20052;-52
2022/01/23 07:40:19;;;;;;;4.97;0.90;;;;;;;8.01;100.00;101708.22;5032675;28;20072;-52
2022/01/23 07:43:23;;;;;;;2.15;0.95;;;;;;;8.00;100.00;101712.19;5032733;28;20052;-52
2022/01/23 07:46:27;;;;;;;10.00;1.48;;;;;;;7.94;100.00;101697.19;5006161;28;20053;-52
2022/01/23 07:49:30;;;;;;;2.22;0.90;;;;;;;7.94;100.00;101702.75;4992072;28;20042;-52
2022/01/23 07:52:35;;;;;;;1.17;0.75;;;;;;;7.89;100.00;101701.22;4993217;28;20483;-52
2022/01/23 07:55:39;;;;;;;10.10;1.48;;;;;;;7.81;100.00;101705.25;4993019;28;20053;-52
2022/01/23 07:58:43;;;;;;;3.58;1.63;;;;;;;7.87;100.00;101709.16;4993241;28;20057;-52
2022/01/23 08:01:46;;;;;;;29.17;4.57;;;;;;;7.80;100.00;101713.97;4993431;28;20061;-52
2022/01/23 08:04:49;;;;;;;11.02;4.88;;;;;;;7.70;100.00;101724.00;5012748;28;20411;-52
2022/01/23 08:07:52;;;;;;;14.65;3.70;;;;;;;7.78;100.00;101728.25;5012272;28;20041;-52
2022/01/23 08:10:55;;;;;;;5.18;2.17;;;;;;;7.76;100.00;101714.03;5012534;28;20050;-52
2022/01/23 08:13:59;;;;;;;6.82;2.10;;;;;;;7.76;100.00;101719.56;5013912;28;20049;-52
2022/01/23 08:17:02;;;;;;;11.93;4.60;;;;;;;7.74;100.00;101723.94;5016243;28;20068;-52
2022/01/23 08:20:07;;;;;;;8.40;1.63;;;;;;;7.85;100.00;101719.88;5016041;28;20065;-52
2022/01/23 08:23:12;;;;;;;6.00;1.50;;;;;;;7.87;100.00;101709.16;5015945;28;20060;-51
2022/01/23 08:26:15;;;;;;;6.82;2.55;;;;;;;7.95;100.00;101710.66;5020731;28;20103;-52
2022/01/23 08:29:19;;;;;;;1.88;1.08;;;;;;;7.99;100.00;101710.63;5035783;28;20474;-52
2022/01/23 08:32:22;;;;;;;5.97;2.13;;;;;;;8.00;100.00;101710.22;5035704;28;20053;-52
2022/01/23 08:35:27;;;;;;;1.55;0.77;;;;;;;7.93;100.00;101707.50;5025074;28;20049;-52
2022/01/23 08:38:31;;;;;;;2.60;1.42;;;;;;;7.90;100.00;101699.22;4995223;28;20061;-52
2022/01/23 08:41:49;;;;;;;2.83;1.25;;;;;;;7.91;100.00;101698.81;4996264;28;20053;-52
2022/01/23 08:44:54;;;;;;;4.25;1.17;;;;;;;7.76;100.00;101704.91;5008661;28;20057;-52
2022/01/23 08:47:58;;;;;;;3.53;1.40;;;;;;;7.73;100.00;101702.97;5014843;28;20057;-52
2022/01/23 08:51:01;;;;;;;6.70;2.28;;;;;;;7.79;100.00;101704.09;5015308;28;20394;-52
2022/01/23 08:54:05;;;;;;;12.32;2.45;;;;;;;7.81;100.00;101715.56;5015616;28;20049;-52
2022/01/23 08:57:09;;;;;;;11.35;4.63;;;;;;;7.81;100.00;101712.78;5015237;28;20388;-52
2022/01/23 09:00:14;;;;;;;24.40;5.47;;;;;;;7.79;100.00;101717.97;5015469;28;20050;-52
2022/01/23 09:03:17;;;;;;;20.20;5.47;;;;;;;7.78;100.00;101716.38;5015232;28;20046;-52
2022/01/23 09:06:21;;;;;;;16.73;3.67;;;;;;;7.78;100.00;101714.41;5015104;28;20467;-52
2022/01/23 09:09:29;;;;;;;5.05;3.30;;;;;;;7.77;100.00;101725.91;5015267;28;20041;-52
2022/01/23 09:15:44;;;;;;;9.60;2.60;;;;;;;7.76;100.00;101724.31;5002891;28;20075;-52
2022/01/23 09:18:47;;;;;;;4.63;2.15;;;;;;;7.80;100.00;101719.53;5015084;28;20052;-52
2022/01/23 09:21:52;;;;;;;23.08;3.67;;;;;;;7.88;100.00;101709.94;5014855;28;20053;-52
2022/01/23 09:24:58;;;;;;;6.32;1.92;;;;;;;7.94;100.00;101719.41;5015479;28;20408;-53
2022/01/23 09:28:04;;;;;;;21.50;2.42;;;;;;;7.93;100.00;101712.25;5015113;28;20045;-52
2022/01/23 09:31:10;;;;;;;14.23;2.60;;;;;;;7.91;100.00;101715.44;5014610;28;20053;-52
2022/01/23 09:34:14;;;;;;;7.45;2.28;;;;;;;7.97;100.00;101713.03;5015175;28;20042;-52
2022/01/23 09:37:19;;;;;;;16.38;2.92;;;;;;;7.98;100.00;101703.50;4994630;28;20499;-52
2022/01/23 09:40:23;;;;;;;5.28;1.38;;;;;;;8.00;100.00;101707.44;4994745;28;20050;-52
2022/01/23 09:43:29;;;;;;;6.75;1.70;;;;;;;8.24;100.00;101719.47;4995313;28;20053;-52
2022/01/23 09:46:33;;;;;;;8.20;1.55;;;;;;;8.37;100.00;101709.41;5014093;28;20514;-52
2022/01/23 09:49:37;;;;;;;7.38;1.50;;;;;;;8.43;100.00;101718.84;5014469;28;20049;-52
2022/01/23 09:52:41;;;;;;;5.03;1.88;;;;;;;8.39;100.00;101718.13;5014676;28;20053;-52
2022/01/23 09:55:46;;;;;;;15.40;2.83;;;;;;;8.44;100.00;101734.31;5014300;28;20060;-52
2022/01/23 09:58:50;;;;;;;12.10;3.53;;;;;;;8.44;100.00;101731.53;5014072;28;20048;-52
2022/01/23 10:01:56;;;;;;;4.25;1.40;;;;;;;8.42;100.00;101736.72;5003276;28;20065;-52
2022/01/23 10:05:00;;;;;;;10.20;2.92;;;;;;;8.33;100.00;101730.88;4995285;28;20407;-52
2022/01/23 10:08:03;;;;;;;6.72;2.72;;;;;;;8.38;100.00;101733.97;5013529;28;20510;-52
2022/01/23 10:11:11;;;;;;;1.73;1.08;;;;;;;8.44;100.00;101737.09;5013976;28;20057;-52
2022/01/23 10:14:15;;;;;;;6.03;2.42;;;;;;;8.47;100.00;101732.72;5013307;28;20049;-52
2022/01/23 10:17:19;;;;;;;4.47;0.85;;;;;;;8.54;100.00;101736.16;5013801;28;20048;-52
2022/01/23 10:20:24;;;;;;;2.75;1.52;;;;;;;8.50;100.00;101732.66;5013794;28;20061;-52
2022/01/23 10:23:27;;;;;;;3.75;1.48;;;;;;;8.46;100.00;101726.38;5013574;28;20489;-52
2022/01/23 10:26:43;;;;;;;2.78;1.00;;;;;;;8.40;100.00;101736.34;5020526;28;20045;-52
2022/01/23 10:29:47;;;;;;;4.90;0.80;;;;;;;8.29;100.00;101736.47;5033340;28;20409;-52
2022/01/23 10:33:14;;;;;;;0.60;0.28;;;;;;;8.17;100.00;101739.75;4993899;28;20157;-52
2022/01/23 10:36:19;;;;;;;0.98;0.30;;;;;;;8.19;100.00;101737.34;5005451;28;20049;-52
2022/01/23 10:39:23;;;;;;;2.22;1.00;;;;;;;8.27;100.00;101733.31;5013855;28;20118;-52
2022/01/23 10:49:07;;;;;;;3.17;1.08;;;;;;;8.38;100.00;101738.75;5013400;28;20411;-52
2022/01/23 10:52:27;;;;;;;1.77;0.47;;;;;;;8.25;100.00;101724.63;5013141;28;20064;-52
2022/01/23 10:55:33;;;;;;;0.50;0.50;;;;;;;8.27;100.00;101727.00;5013183;28;20470;-52
2022/01/23 10:58:37;;;;;;;1.17;0.85;;;;;;;8.17;100.00;101728.66;5013261;28;20052;-52
2022/01/23 11:01:59;;;;;;;2.00;0.75;;;;;;;8.17;100.00;101738.94;4999260;28;20069;-52
2022/01/23 11:05:06;;;;;;;2.40;0.52;;;;;;;8.13;100.00;101727.91;4994804;28;20049;-52
2022/01/23 11:08:19;;;;;;;2.80;0.65;;;;;;;8.24;100.00;101730.56;5013295;28;20057;-52
2022/01/23 11:11:39;;;;;;;0.40;0.40;;;;;;;8.07;100.00;101728.78;5013256;28;20501;-52
2022/01/23 11:18:18;;;;;;;1.02;0.82;;;;;;;8.06;100.00;101716.09;5012749;28;20525;-51
2022/01/23 11:21:22;;;;;;;0.50;0.50;;;;;;;8.05;100.00;101731.16;5012832;28;20060;-52
2022/01/23 11:24:36;;;;;;;1.85;0.73;;;;;;;8.02;100.00;101715.34;5012901;28;20422;-52
2022/01/23 11:27:40;;;;;;;3.13;1.35;;;;;;;8.02;100.00;101720.88;5028313;28;20064;-52
2022/01/23 11:30:46;;;;;;;1.08;0.88;;;;;;;7.97;100.00;101718.59;5027045;28;20057;-50
2022/01/23 11:33:51;;;;;;;2.92;0.80;;;;;;;7.93;100.00;101712.25;5012803;28;20057;-52
2022/01/23 11:36:55;;;;;;;2.08;0.40;;;;;;;7.81;100.00;101712.78;5012875;28;20430;-52
2022/01/23 11:40:06;;;;;;;4.20;1.08;;;;;;;7.75;100.00;101711.66;5012954;28;20053;-52
2022/01/23 11:53:56;;;;;;;0.70;0.60;;;;;;;7.89;100.00;101683.78;5016584;28;20057;-52
2022/01/23 11:57:02;;;;;;;1.38;0.45;;;;;;;7.86;100.00;101681.84;5016187;28;20057;-52
2022/01/23 12:00:19;;;;;;;3.15;2.17;;;;;;;7.91;100.00;101689.69;5015610;28;20064;-52
2022/01/23 12:03:22;;;;;;;1.70;0.88;;;;;;;7.84;100.00;101675.94;5015800;28;20057;-52
2022/01/23 12:06:26;;;;;;;0.47;0.47;;;;;;;7.84;100.00;101667.59;5016275;28;20052;-51
2022/01/23 12:09:29;;;;;;;0.82;0.50;;;;;;;7.86;100.00;101667.97;5016469;28;20052;-51
2022/01/23 12:12:48;;;;;;;1.60;0.95;;;;;;;7.79;100.00;101668.03;5016093;28;20044;-51
2022/01/23 12:19:21;;;;;;;0.75;0.47;;;;;;;7.82;100.00;101661.69;5016211;28;20061;-51
2022/01/23 12:22:33;;;;;;;0.50;0.43;;;;;;;7.80;100.00;101659.31;5015847;28;20053;-52
2022/01/23 12:25:42;;;;;;;0.82;0.70;;;;;;;7.85;100.00;101666.38;5015492;28;20056;-51
2022/01/23 12:28:46;;;;;;;8.60;1.83;;;;;;;7.83;100.00;101650.16;4996336;28;20049;-52
2022/01/23 12:32:10;;;;;;;2.78;0.65;;;;;;;7.81;100.00;101643.47;4998512;28;20053;-51
2022/01/23 12:35:15;;;;;;;1.38;0.60;;;;;;;7.72;100.00;101645.94;5004314;28;20041;-51
2022/01/23 12:38:27;;;;;;;2.20;0.85;;;;;;;7.74;100.00;101637.97;5006034;28;20054;-51
2022/01/23 12:41:32;;;;;;;;;;;;;;;7.74;100.00;101632.44;5006608;28;20060;-51
2022/01/23 12:44:38;;;;;;;4.57;0.45;;;;;;;7.83;100.00;101624.41;5006967;28;19921;-52
2022/01/23 12:47:41;;;;;;;1.73;0.82;;;;;;;7.91;100.00;101620.34;4996293;28;20049;-51
2022/01/23 12:50:46;;;;;;;4.55;1.05;;;;;;;7.92;100.00;101621.94;4995893;28;20049;-51
2022/01/23 12:53:50;;;;;;;0.95;0.60;;;;;;;7.84;100.00;101614.91;4995734;28;20049;-51
2022/01/23 12:56:55;;;;;;;2.97;1.00;;;;;;;7.80;100.00;101608.59;5012439;28;20490;-51
2022/01/23 13:00:01;;;;;;;1.70;0.73;;;;;;;7.87;100.00;101614.06;5009980;28;20049;-51
2022/01/23 13:03:12;;;;;;;1.35;0.80;;;;;;;7.86;100.00;101602.16;4998286;28;20057;-51
2022/01/23 13:06:16;;;;;;;0.20;0.20;;;;;;;7.86;100.00;101599.41;5006845;28;20057;-51
2022/01/23 13:09:33;;;;;;;0.32;0.20;;;;;;;7.85;100.00;101597.03;5014907;28;20053;-51
2022/01/23 13:16:21;;;;;;;2.20;0.40;;;;;;;7.92;100.00;101591.41;5006428;28;20513;-51
2022/01/23 13:19:43;;;;;;;0.50;0.50;;;;;;;7.88;100.00;101593.47;4995499;28;20403;-51
2022/01/23 13:29:59;;;;;;;4.47;0.98;;;;;;;7.90;100.00;101602.16;5004404;28;20065;-52
2022/01/23 13:33:09;;;;;;;1.60;0.77;;;;;;;7.84;100.00;101599.03;5008069;28;20395;-51
2022/01/23 13:36:12;;;;;;;0.35;0.35;;;;;;;7.82;100.00;101595.88;5014737;28;20088;-51
2022/01/23 13:39:29;;;;;;;4.97;1.27;;;;;;;7.81;100.00;101599.09;5011533;28;20061;-51
2022/01/23 13:52:36;;;;;;;9.48;1.95;;;;;;;7.86;100.00;101593.09;5014455;28;20426;-52
2022/01/23 13:59:21;;;;;;;5.97;0.98;;;;;;;7.87;100.00;101594.63;5014195;28;20049;-52
2022/01/23 14:02:36;;;;;;;4.53;1.70;;;;;;;7.81;100.00;101583.22;5014107;28;20061;-49
2022/01/23 14:05:40;;;;;;;0.82;0.55;;;;;;;7.91;100.00;101582.31;5013983;28;20053;-49
2022/01/23 14:09:07;;;;;;;1.38;0.63;;;;;;;7.89;100.00;101583.91;5013717;28;20052;-50
2022/01/23 14:12:13;;;;;;;7.60;2.33;;;;;;;7.86;100.00;101584.75;5012982;28;20049;-48
2022/01/23 14:15:22;;;;;;;3.05;1.48;;;;;;;7.85;100.00;101577.63;5013840;28;20176;-49
2022/01/23 14:18:29;;;;;;;3.72;0.70;;;;;;;7.75;100.00;101578.56;5013032;28;20053;-49
2022/01/23 14:21:41;;;;;;;3.50;1.33;;;;;;;7.74;100.00;101568.66;5013698;28;20052;-48
2022/01/23 14:24:45;;;;;;;2.35;0.70;;;;;;;7.80;100.00;101565.00;5012870;28;20077;-49
2022/01/23 14:28:05;;;;;;;5.47;1.17;;;;;;;7.92;100.00;101560.91;5031132;28;20052;-49
2022/01/23 14:31:20;;;;;;;0.75;0.60;;;;;;;7.90;100.00;101568.84;5033023;28;20052;-48
2022/01/23 14:34:24;;;;;;;1.50;0.47;;;;;;;7.90;100.00;101555.00;5033531;28;20048;-49
2022/01/23 14:37:27;;;;;;;3.00;0.60;;;;;;;7.79;100.00;101560.69;4993890;28;20057;-48
2022/01/23 14:40:31;;;;;;;2.40;0.80;;;;;;;7.85;100.00;101552.66;4994231;28;20053;-49
2022/01/23 14:43:40;;;;;;;6.65;0.70;;;;;;;7.87;100.00;101547.50;4993407;28;20053;-49
2022/01/23 14:46:50;;;;;;;3.55;1.38;;;;;;;7.81;100.00;101543.63;5009493;28;20056;-50
2022/01/23 14:49:58;;;;;;;5.90;1.23;;;;;;;7.74;100.00;101546.47;5013194;28;20052;-50
2022/01/23 14:53:23;;;;;;;1.85;0.60;;;;;;;7.70;100.00;101549.28;5013225;28;20494;-50
2022/01/23 14:56:29;;;;;;;1.13;0.90;;;;;;;7.71;100.00;101544.53;5026602;28;20049;-49
2022/01/23 14:59:34;;;;;;;2.30;0.85;;;;;;;7.71;100.00;101544.53;5032839;28;20068;-49
2022/01/23 15:02:40;;;;;;;3.55;0.75;;;;;;;7.69;100.00;101544.16;5032175;28;20048;-50
2022/01/23 15:05:44;;;;;;;5.90;1.92;;;;;;;7.69;100.00;101536.63;5017872;28;20045;-50
2022/01/23 15:08:48;;;;;;;3.55;1.38;;;;;;;7.75;100.00;101534.19;4993164;28;20057;-51
2022/01/23 15:11:51;;;;;;;8.50;1.75;;;;;;;7.85;100.00;101538.81;4993171;28;20057;-50
2022/01/23 15:14:55;;;;;;;2.75;1.38;;;;;;;7.85;100.00;101528.50;4992007;28;20065;-49
2022/01/23 15:17:58;;;;;;;2.55;0.93;;;;;;;7.85;100.00;101522.16;4993278;28;20054;-50
2022/01/23 15:21:02;;;;;;;6.75;1.80;;;;;;;7.82;100.00;101529.31;4992259;28;20667;-50
2022/01/23 15:24:06;;;;;;;1.33;1.15;;;;;;;7.78;100.00;101533.34;4992652;28;20388;-50
2022/01/23 15:27:10;;;;;;;6.90;1.58;;;;;;;7.70;100.00;101521.56;5023809;28;20057;-49
2022/01/23 15:30:18;;;;;;;0.40;0.17;;;;;;;7.69;100.00;101519.22;5032157;28;20049;-49
2022/01/23 15:33:21;;;;;;;2.28;0.68;;;;;;;7.63;100.00;101516.09;5031631;28;20053;-49
2022/01/23 15:36:25;;;;;;;4.00;1.25;;;;;;;7.62;100.00;101515.31;4993340;28;20053;-49
2022/01/23 15:39:30;;;;;;;7.60;1.92;;;;;;;7.50;100.00;101526.94;4995181;28;20045;-49
2022/01/23 15:42:34;;;;;;;8.30;1.90;;;;;;;7.52;100.00;101516.22;5012136;28;20506;-49
2022/01/23 15:45:38;;;;;;;3.90;1.98;;;;;;;7.52;100.00;101515.44;5011837;28;20498;-49
2022/01/23 15:48:42;;;;;;;5.03;1.92;;;;;;;7.47;100.00;101513.91;5011920;28;20053;-49
2022/01/23 15:51:47;;;;;;;6.10;2.00;;;;;;;7.41;100.00;101515.56;5011915;28;20386;-49
2022/01/23 15:54:51;;;;;;;2.53;0.90;;;;;;;7.42;100.00;101511.63;5012350;28;20045;-48
2022/01/23 15:57:56;;;;;;;7.05;1.00;;;;;;;7.39;100.00;101508.88;5011994;28;20044;-49
2022/01/23 16:01:00;;;;;;;2.80;1.38;;;;;;;7.38;100.00;101518.41;5011709;28;20485;-49
2022/01/23 16:04:04;;;;;;;0.68;0.68;;;;;;;7.34;100.00;101509.34;5012004;28;20053;-49
2022/01/23 16:07:12;;;;;;;0.73;0.65;;;;;;;7.36;100.00;101504.94;5011860;28;20509;-49
2022/01/23 16:10:16;;;;;;;1.85;0.77;;;;;;;7.34;100.00;101509.34;5012493;28;20053;-49
2022/01/23 16:13:19;;;;;;;2.85;0.63;;;;;;;7.32;100.00;101512.50;5012636;28;20053;-49
2022/01/23 16:16:23;;;;;;;8.75;0.88;;;;;;;7.33;100.00;101514.09;5012144;28;20052;-49
2022/01/23 16:19:26;;;;;;;1.25;0.93;;;;;;;7.25;100.00;101507.06;5011207;28;20052;-49
2022/01/23 16:22:29;;;;;;;1.60;0.77;;;;;;;7.25;100.00;101512.59;5011219;28;20053;-49
2022/01/23 16:25:33;;;;;;;4.32;1.02;;;;;;;7.25;100.00;101507.06;5012254;28;20053;-49
2022/01/23 16:28:37;;;;;;;1.52;1.05;;;;;;;7.27;100.00;101512.97;5003394;28;20065;-49
2022/01/23 16:31:41;;;;;;;4.28;1.02;;;;;;;7.28;100.00;101511.75;4992913;28;20057;-49
2022/01/23 16:34:44;;;;;;;3.65;2.22;;;;;;;7.25;100.00;101514.59;4994453;28;20061;-49
2022/01/23 16:37:47;;;;;;;1.35;1.23;;;;;;;7.23;100.00;101515.00;4994642;28;20053;-48
2022/01/23 16:40:54;;;;;;;6.97;1.98;;;;;;;7.13;100.00;101520.63;5010882;28;20056;-49
2022/01/23 16:43:58;;;;;;;1.33;1.00;;;;;;;7.07;100.00;101523.06;5015084;28;20048;-49
2022/01/23 16:47:03;;;;;;;3.25;1.70;;;;;;;7.03;100.00;101516.78;5014768;28;20048;-49
2022/01/23 16:50:07;;;;;;;5.47;2.10;;;;;;;7.02;100.00;101526.28;5014896;28;20430;-49
2022/01/23 16:53:11;;;;;;;10.23;1.80;;;;;;;6.99;100.00;101513.25;5015655;28;20064;-49
2022/01/23 16:56:17;;;;;;;5.38;1.55;;;;;;;6.92;100.00;101509.75;5015846;28;20534;-49
2022/01/23 16:59:21;;;;;;;4.78;1.95;;;;;;;6.87;100.00;101520.09;5015459;28;20045;-49
2022/01/23 17:02:24;;;;;;;1.98;0.98;;;;;;;6.85;100.00;101516.16;5015739;28;20048;-49
2022/01/23 17:05:29;;;;;;;4.10;0.73;;;;;;;6.87;100.00;101525.63;5015363;28;20044;-49
2022/01/23 17:08:33;;;;;;;2.20;0.63;;;;;;;6.90;100.00;101532.34;5015165;28;20065;-50
2022/01/23 17:11:37;;;;;;;11.27;2.00;;;;;;;6.91;100.00;101520.06;4994512;28;20057;-48
2022/01/23 17:14:40;;;;;;;8.07;1.08;;;;;;;6.94;100.00;101519.25;4995626;28;20050;-48
2022/01/23 17:17:46;;;;;;;5.28;1.75;;;;;;;6.94;100.00;101523.97;4996160;28;20057;-48
2022/01/23 17:20:49;;;;;;;5.13;1.83;;;;;;;7.00;100.00;101523.13;5006092;28;20053;-49
2022/01/23 17:23:53;;;;;;;1.15;0.95;;;;;;;6.99;100.00;101521.56;4999027;28;20052;-48
2022/01/23 17:26:59;;;;;;;10.35;2.38;;;;;;;6.97;100.00;101523.97;5020477;28;20399;-48
2022/01/23 17:30:04;;;;;;;14.02;2.92;;;;;;;6.94;100.00;101518.44;5014039;28;20046;-49
2022/01/23 17:33:07;;;;;;;6.43;2.53;;;;;;;6.94;100.00;101523.97;5014897;28;20046;-50
2022/01/23 17:36:11;;;;;;;8.70;1.55;;;;;;;6.94;100.00;101530.31;5013993;28;20049;-50
2022/01/23 17:39:15;;;;;;;10.88;2.03;;;;;;;6.93;100.00;101528.72;5014983;28;20057;-49
2022/01/23 17:42:18;;;;;;;2.20;1.35;;;;;;;6.87;100.00;101524.84;5013899;28;20387;-48